createdAt,value
2022-11-18T00:01:10.611Z,11.50
2022-11-18T00:03:38.878Z,11.50
2022-11-18T00:06:08.024Z,11.40
2022-11-18T00:08:37.231Z,11.40
2022-11-18T00:11:34.715Z,11.40
2022-11-18T00:14:19.789Z,11.40
2022-11-18T00:16:49.202Z,11.40
2022-11-18T00:19:18.440Z,11.50
2022-11-18T00:21:46.570Z,11.50
2022-11-18T00:24:15.833Z,11.50
2022-11-18T00:26:43.754Z,11.50
2022-11-18T00:29:12.142Z,11.50
2022-11-18T00:31:40.290Z,11.50
2022-11-18T00:34:08.470Z,11.50
2022-11-18T00:36:36.301Z,11.50
2022-11-18T00:39:04.160Z,11.50
2022-11-18T00:41:47.378Z,11.50
2022-11-18T00:44:15.339Z,11.60
2022-11-18T00:46:43.592Z,11.60
2022-11-18T00:49:11.466Z,11.60
2022-11-18T00:51:39.930Z,11.60
2022-11-18T00:54:07.760Z,11.70
2022-11-18T00:56:37.077Z,11.70
2022-11-18T00:59:04.977Z,11.70
2022-11-18T01:01:32.943Z,11.70
2022-11-18T01:04:00.908Z,11.70
2022-11-18T01:06:31.752Z,11.70
2022-11-18T01:08:59.646Z,11.70
2022-11-18T01:11:44.728Z,11.70
2022-11-18T01:14:13.931Z,11.60
2022-11-18T01:16:41.746Z,11.70
2022-11-18T01:19:09.710Z,11.70
2022-11-18T01:21:37.611Z,11.70
2022-11-18T01:24:06.157Z,11.70
2022-11-18T01:26:34.039Z,11.70
2022-11-18T01:29:01.941Z,11.60
2022-11-18T01:31:31.130Z,11.70
2022-11-18T01:33:59.020Z,11.60
2022-11-18T01:36:28.850Z,11.60
2022-11-18T01:38:57.322Z,11.60
2022-11-18T01:41:27.385Z,11.60
2022-11-18T01:43:58.262Z,11.60
2022-11-18T01:46:27.655Z,11.60
2022-11-18T01:49:00.329Z,11.60
2022-11-18T01:51:33.360Z,11.60
2022-11-18T01:54:06.293Z,11.60
2022-11-18T01:56:39.936Z,11.60
2022-11-18T01:59:12.194Z,11.60
2022-11-18T02:01:40.926Z,11.50
2022-11-18T02:04:10.980Z,11.50
2022-11-18T02:06:39.070Z,11.60
2022-11-18T02:09:07.561Z,11.50
2022-11-18T02:11:54.632Z,11.60
2022-11-18T02:14:25.801Z,11.50
2022-11-18T02:17:04.964Z,11.50
2022-11-18T02:20:14.530Z,11.50
2022-11-18T02:23:01.062Z,11.40
2022-11-18T02:25:41.847Z,11.40
2022-11-18T02:28:33.470Z,11.40
2022-11-18T02:31:09.556Z,11.40
2022-11-18T02:33:44.305Z,11.40
2022-11-18T02:36:19.394Z,11.40
2022-11-18T02:38:53.338Z,11.40
2022-11-18T02:41:24.700Z,11.40
2022-11-18T02:43:55.629Z,11.40
2022-11-18T02:46:28.089Z,11.40
2022-11-18T02:48:56.644Z,11.40
2022-11-18T02:51:27.946Z,11.50
2022-11-18T02:54:00.295Z,11.50
2022-11-18T02:56:29.413Z,11.50
2022-11-18T02:58:57.618Z,11.50
2022-11-18T03:01:29.413Z,11.50
2022-11-18T03:03:57.559Z,11.40
2022-11-18T03:06:30.828Z,11.50
2022-11-18T03:09:06.978Z,11.50
2022-11-18T03:11:44.496Z,11.50
2022-11-18T03:14:21.353Z,11.50
2022-11-18T03:16:59.377Z,11.40
2022-11-18T03:19:35.489Z,11.40
2022-11-18T03:22:11.237Z,11.40
2022-11-18T03:24:42.310Z,11.40
2022-11-18T03:27:14.421Z,11.50
2022-11-18T03:29:47.753Z,11.50
2022-11-18T03:32:21.052Z,11.60
2022-11-18T03:34:51.312Z,11.60
2022-11-18T03:37:21.904Z,11.50
2022-11-18T03:39:53.669Z,11.40
2022-11-18T03:42:26.557Z,11.40
2022-11-18T03:44:59.764Z,11.40
2022-11-18T03:47:32.917Z,11.50
2022-11-18T03:50:06.249Z,11.50
2022-11-18T03:52:37.502Z,11.50
2022-11-18T03:55:12.005Z,11.60
2022-11-18T03:57:46.371Z,11.50
2022-11-18T04:00:16.915Z,11.50
2022-11-18T04:02:47.543Z,11.60
2022-11-18T04:05:17.893Z,11.60
2022-11-18T04:07:53.829Z,11.60
2022-11-18T04:10:24.150Z,11.60
2022-11-18T04:13:01.861Z,11.60
2022-11-18T04:15:34.600Z,11.50
2022-11-18T04:18:04.162Z,11.60
2022-11-18T04:20:33.691Z,11.60
2022-11-18T04:23:01.950Z,11.60
2022-11-18T04:25:29.791Z,11.60
2022-11-18T04:27:57.679Z,11.60
2022-11-18T04:30:25.735Z,11.60
2022-11-18T04:32:53.567Z,11.60
2022-11-18T04:35:23.175Z,11.60
2022-11-18T04:37:51.118Z,11.60
2022-11-18T04:40:19.096Z,11.60
2022-11-18T04:42:46.890Z,11.60
2022-11-18T04:45:14.773Z,11.60
2022-11-18T04:47:42.645Z,11.50
2022-11-18T04:50:11.139Z,11.50
2022-11-18T04:52:40.358Z,11.50
2022-11-18T04:55:08.886Z,11.40
2022-11-18T04:57:36.785Z,11.40
2022-11-18T05:00:05.760Z,11.30
2022-11-18T05:02:33.567Z,11.20
2022-11-18T05:05:01.409Z,11.20
2022-11-18T05:07:29.270Z,11.20
2022-11-18T05:09:58.465Z,11.10
2022-11-18T05:12:43.617Z,11.20
2022-11-18T05:15:11.582Z,11.20
2022-11-18T05:17:39.434Z,11.30
2022-11-18T05:20:08.297Z,11.30
2022-11-18T05:22:37.360Z,11.30
2022-11-18T05:25:07.819Z,11.30
2022-11-18T05:27:36.480Z,11.40
2022-11-18T05:30:04.952Z,11.40
2022-11-18T05:32:32.810Z,11.40
2022-11-18T05:35:00.666Z,11.50
2022-11-18T05:37:28.491Z,11.40
2022-11-18T05:39:56.286Z,11.40
2022-11-18T05:42:42.812Z,11.40
2022-11-18T05:45:10.902Z,11.40
2022-11-18T05:47:52.700Z,11.40
2022-11-18T05:50:21.602Z,11.40
2022-11-18T05:52:49.860Z,11.40
2022-11-18T05:55:19.037Z,11.50
2022-11-18T05:57:48.214Z,11.50
2022-11-18T06:00:17.330Z,11.50
2022-11-18T06:02:48.131Z,11.60
2022-11-18T06:05:17.465Z,11.60
2022-11-18T06:07:46.271Z,11.60
2022-11-18T06:10:17.829Z,11.60
2022-11-18T06:12:52.525Z,11.60
2022-11-18T06:15:22.825Z,11.60
2022-11-18T06:17:53.887Z,11.60
2022-11-18T06:20:22.845Z,11.60
2022-11-18T06:22:54.373Z,11.60
2022-11-18T06:25:22.658Z,11.60
2022-11-18T06:27:53.667Z,11.70
2022-11-18T06:30:21.474Z,11.70
2022-11-18T06:32:49.355Z,11.60
2022-11-18T06:35:17.554Z,11.60
2022-11-18T06:37:45.543Z,11.60
2022-11-18T06:40:13.914Z,11.50
2022-11-18T06:42:59.378Z,11.50
2022-11-18T06:45:28.825Z,11.40
2022-11-18T06:47:58.178Z,11.40
2022-11-18T06:50:26.095Z,11.40
2022-11-18T06:52:54.253Z,11.40
2022-11-18T06:55:22.109Z,11.40
2022-11-18T06:57:50.044Z,11.50
2022-11-18T07:00:18.885Z,11.50
2022-11-18T07:02:48.399Z,11.50
2022-11-18T07:05:16.330Z,11.50
2022-11-18T07:07:44.288Z,11.50
2022-11-18T07:10:12.544Z,11.50
2022-11-18T07:12:40.359Z,11.50
2022-11-18T07:15:09.420Z,11.50
2022-11-18T07:17:37.254Z,11.50
2022-11-18T07:20:07.375Z,11.60
2022-11-18T07:22:35.202Z,11.60
2022-11-18T07:25:03.128Z,11.60
2022-11-18T07:27:31.001Z,11.60
2022-11-18T07:29:58.815Z,11.60
2022-11-18T07:32:26.654Z,11.60
2022-11-18T07:34:54.492Z,11.70
2022-11-18T07:37:23.729Z,11.70
2022-11-18T07:39:52.769Z,11.70
2022-11-18T07:42:20.616Z,11.70
2022-11-18T07:44:48.486Z,11.70
2022-11-18T07:47:16.365Z,11.70
2022-11-18T07:49:44.288Z,11.70
2022-11-18T07:52:15.343Z,11.70
2022-11-18T07:54:44.554Z,11.70
2022-11-18T07:57:12.367Z,11.70
2022-11-18T07:59:40.156Z,11.70
2022-11-18T08:02:07.997Z,11.70
2022-11-18T08:04:38.705Z,11.70
2022-11-18T08:07:06.852Z,11.70
2022-11-18T08:09:34.824Z,11.70
2022-11-18T08:12:04.063Z,11.70
2022-11-18T08:14:31.918Z,11.70
2022-11-18T08:16:59.746Z,11.80
2022-11-18T08:19:27.597Z,11.80
2022-11-18T08:21:55.652Z,11.80
2022-11-18T08:24:23.604Z,11.80
2022-11-18T08:26:51.420Z,11.80
2022-11-18T08:29:24.933Z,11.80
2022-11-18T08:31:54.584Z,11.90
2022-11-18T08:34:22.462Z,11.90
2022-11-18T08:36:50.361Z,11.90
2022-11-18T08:39:18.775Z,11.90
2022-11-18T08:41:47.557Z,11.90
2022-11-18T08:44:17.192Z,11.90
2022-11-18T08:46:46.724Z,11.90
2022-11-18T08:49:14.600Z,12.00
2022-11-18T08:51:42.659Z,12.00
2022-11-18T08:54:10.553Z,12.00
2022-11-18T08:56:39.092Z,12.00
2022-11-18T08:59:07.152Z,12.00
2022-11-18T09:01:35.157Z,12.00
2022-11-18T09:04:04.768Z,12.00
2022-11-18T09:06:32.731Z,12.10
2022-11-18T09:09:05.017Z,12.10
2022-11-18T09:11:35.343Z,12.10
2022-11-18T09:16:51.483Z,12.10
2022-11-18T09:22:09.576Z,12.30
2022-11-18T09:24:38.124Z,12.30
2022-11-18T09:27:12.223Z,12.30
2022-11-18T09:29:43.168Z,12.40
2022-11-18T09:32:10.989Z,12.40
2022-11-18T09:34:40.205Z,12.50
2022-11-18T09:37:08.099Z,12.50
2022-11-18T09:39:37.085Z,12.60
2022-11-18T09:42:22.194Z,12.60
2022-11-18T09:45:06.287Z,12.60
2022-11-18T09:47:38.126Z,12.60
2022-11-18T09:50:41.691Z,12.70
2022-11-18T09:53:10.023Z,12.60
2022-11-18T09:55:40.980Z,12.60
2022-11-18T09:58:14.230Z,12.60
2022-11-18T10:00:44.226Z,12.70
2022-11-18T10:03:18.749Z,12.70
2022-11-18T10:05:52.015Z,12.80
2022-11-18T10:08:25.815Z,12.90
2022-11-18T10:11:01.427Z,13.00
2022-11-18T10:13:43.558Z,13.10
2022-11-18T10:16:23.546Z,13.20
2022-11-18T10:19:00.602Z,13.30
2022-11-18T10:21:42.360Z,13.30
2022-11-18T10:24:16.766Z,13.50
2022-11-18T10:26:44.848Z,13.50
2022-11-18T10:29:12.706Z,13.60
2022-11-18T10:31:41.970Z,13.70
2022-11-18T10:34:15.020Z,13.70
2022-11-18T10:36:44.361Z,13.80
2022-11-18T10:39:14.761Z,14.00
2022-11-18T10:41:54.216Z,14.10
2022-11-18T10:44:34.293Z,14.20
2022-11-18T10:47:25.311Z,14.20
2022-11-18T10:49:54.179Z,14.20
2022-11-18T10:52:23.604Z,14.10
2022-11-18T10:55:21.819Z,14.10
2022-11-18T10:57:58.319Z,14.10
2022-11-18T11:00:42.301Z,14.00
2022-11-18T11:03:36.824Z,14.00
2022-11-18T11:06:33.573Z,14.00
2022-11-18T11:09:29.520Z,13.90
2022-11-18T11:12:01.061Z,13.90
2022-11-18T11:14:33.915Z,13.80
2022-11-18T11:17:07.581Z,13.80
2022-11-18T11:19:52.606Z,13.80
2022-11-18T11:22:20.559Z,13.80
2022-11-18T11:24:50.460Z,13.70
2022-11-18T11:30:40.786Z,13.70
2022-11-18T11:33:27.203Z,13.80
2022-11-18T11:36:22.346Z,13.90
2022-11-18T11:39:04.519Z,14.20
2022-11-18T11:41:50.102Z,14.50
2022-11-18T11:44:32.128Z,14.90
2022-11-18T11:47:44.300Z,15.10
2022-11-18T11:50:18.012Z,15.10
2022-11-18T11:53:01.470Z,15.10
2022-11-18T11:55:46.477Z,15.00
2022-11-18T11:58:39.194Z,14.90
2022-11-18T12:01:19.875Z,14.70
2022-11-18T12:03:52.180Z,14.60
2022-11-18T12:06:20.730Z,14.60
2022-11-18T12:08:57.525Z,14.50
2022-11-18T12:11:32.723Z,14.50
2022-11-18T12:14:06.931Z,14.60
2022-11-18T12:16:41.780Z,14.70
2022-11-18T12:19:13.254Z,14.80
2022-11-18T12:22:00.592Z,14.70
2022-11-18T12:24:39.771Z,14.60
2022-11-18T12:27:59.660Z,14.60
2022-11-18T12:30:31.654Z,14.50
2022-11-18T12:33:08.291Z,14.70
2022-11-18T12:35:45.838Z,15.10
2022-11-18T12:38:46.070Z,15.60
2022-11-18T12:42:06.905Z,16.10
2022-11-18T12:44:39.724Z,16.40
2022-11-18T12:47:12.558Z,16.50
2022-11-18T12:50:21.441Z,16.40
2022-11-18T12:52:59.406Z,16.00
2022-11-18T12:55:39.636Z,15.80
2022-11-18T12:58:26.253Z,15.80
2022-11-18T13:01:06.585Z,15.50
2022-11-18T13:03:35.892Z,15.30
2022-11-18T13:06:08.839Z,15.10
2022-11-18T13:08:38.778Z,15.00
2022-11-18T13:11:32.616Z,14.90
2022-11-18T13:14:19.445Z,14.90
2022-11-18T13:17:04.556Z,14.80
2022-11-18T13:19:36.902Z,14.80
2022-11-18T13:22:23.020Z,14.80
2022-11-18T13:24:54.960Z,14.80
2022-11-18T13:27:40.021Z,14.70
2022-11-18T13:30:12.956Z,14.60
2022-11-18T13:32:45.855Z,14.50
2022-11-18T13:35:18.426Z,14.50
2022-11-18T13:37:54.259Z,14.50
2022-11-18T13:40:24.629Z,14.40
2022-11-18T13:42:52.632Z,14.30
2022-11-18T13:45:24.274Z,14.30
2022-11-18T13:47:53.855Z,14.20
2022-11-18T13:50:31.216Z,14.10
2022-11-18T13:53:09.503Z,14.00
2022-11-18T13:55:40.840Z,14.00
2022-11-18T13:58:55.817Z,13.90
2022-11-18T14:01:25.378Z,13.90
2022-11-18T14:03:55.356Z,13.90
2022-11-18T14:06:29.431Z,13.90
2022-11-18T14:09:20.775Z,13.90
2022-11-18T14:15:15.990Z,13.80
2022-11-18T14:17:55.538Z,13.80
2022-11-18T14:20:23.989Z,13.80
2022-11-18T14:22:55.888Z,13.80
2022-11-18T14:25:28.211Z,13.80
2022-11-18T14:27:57.329Z,13.80
2022-11-18T14:30:36.744Z,13.80
2022-11-18T14:33:14.799Z,13.80
2022-11-18T14:35:45.021Z,13.80
2022-11-18T14:41:09.275Z,13.80
2022-11-18T14:43:37.533Z,13.80
2022-11-18T14:46:08.568Z,13.80
2022-11-18T14:48:36.402Z,13.70
2022-11-18T14:51:04.318Z,13.80
2022-11-18T14:53:33.580Z,13.80
2022-11-18T14:56:01.515Z,13.70
2022-11-18T14:58:29.389Z,13.70
2022-11-18T15:00:57.667Z,13.70
2022-11-18T15:03:25.700Z,13.60
2022-11-18T15:05:53.682Z,13.60
2022-11-18T15:08:21.606Z,13.60
2022-11-18T15:10:50.833Z,13.50
2022-11-18T15:13:18.715Z,13.50
2022-11-18T15:15:46.609Z,13.40
2022-11-18T15:18:14.424Z,13.40
2022-11-18T15:20:42.297Z,13.40
2022-11-18T15:23:10.211Z,13.30
2022-11-18T15:25:38.141Z,13.30
2022-11-18T15:28:07.408Z,13.20
2022-11-18T15:30:35.407Z,13.20
2022-11-18T15:33:03.330Z,13.10
2022-11-18T15:35:31.401Z,13.10
2022-11-18T15:37:59.860Z,13.00
2022-11-18T15:40:27.815Z,13.00
2022-11-18T15:42:55.689Z,12.90
2022-11-18T15:45:25.033Z,12.90
2022-11-18T15:47:52.923Z,12.80
2022-11-18T15:50:20.820Z,12.80
2022-11-18T15:52:48.907Z,12.70
2022-11-18T15:55:16.896Z,12.70
2022-11-18T15:57:44.747Z,12.70
2022-11-18T16:00:13.906Z,12.60
2022-11-18T16:02:45.203Z,12.60
2022-11-18T16:05:13.549Z,12.50
2022-11-18T16:07:41.480Z,12.50
2022-11-18T16:10:28.276Z,12.50
2022-11-18T16:12:56.220Z,12.40
2022-11-18T16:15:41.487Z,12.40
2022-11-18T16:18:11.163Z,12.30
2022-11-18T16:20:39.097Z,12.30
2022-11-18T16:23:07.163Z,12.30
2022-11-18T16:25:35.458Z,12.30
2022-11-18T16:28:07.345Z,12.20
2022-11-18T16:30:52.937Z,12.20
2022-11-18T16:33:22.310Z,12.10
2022-11-18T16:35:50.362Z,12.10
2022-11-18T16:38:18.589Z,12.00
2022-11-18T16:40:46.550Z,12.00
2022-11-18T16:43:14.443Z,12.00
2022-11-18T16:45:42.312Z,11.90
2022-11-18T16:48:10.195Z,11.90
2022-11-18T16:50:39.426Z,11.90
2022-11-18T16:53:07.240Z,11.90
2022-11-18T16:55:35.077Z,11.90
2022-11-18T16:58:02.921Z,11.80
2022-11-18T17:00:58.315Z,11.80
2022-11-18T17:03:18.735Z,11.80
2022-11-18T17:05:47.909Z,11.80
2022-11-18T17:08:15.751Z,11.70
2022-11-18T17:10:43.595Z,11.70
2022-11-18T17:13:11.466Z,11.70
2022-11-18T17:15:39.332Z,11.70
2022-11-18T17:18:07.528Z,11.70
2022-11-18T17:20:36.194Z,11.70
2022-11-18T17:23:05.427Z,11.70
2022-11-18T17:25:35.445Z,11.70
2022-11-18T17:28:03.307Z,11.80
2022-11-18T17:30:31.150Z,11.70
2022-11-18T17:32:59.309Z,11.80
2022-11-18T17:35:27.149Z,11.80
2022-11-18T17:37:55.364Z,11.70
2022-11-18T17:40:24.623Z,11.80
2022-11-18T17:42:52.785Z,11.80
2022-11-18T17:45:20.667Z,11.80
2022-11-18T17:47:48.821Z,11.90
2022-11-18T17:50:16.913Z,11.90
2022-11-18T17:52:44.753Z,11.90
2022-11-18T17:55:12.630Z,11.90
2022-11-18T17:57:41.905Z,11.90
2022-11-18T18:00:11.385Z,11.90
2022-11-18T18:02:39.298Z,11.90
2022-11-18T18:05:07.985Z,11.90
2022-11-18T18:07:35.914Z,11.80
2022-11-18T18:10:04.159Z,11.80
2022-11-18T18:12:54.782Z,11.80
2022-11-18T18:15:24.158Z,11.80
2022-11-18T18:17:51.970Z,11.70
2022-11-18T18:20:19.841Z,11.70
2022-11-18T18:22:48.309Z,11.70
2022-11-18T18:25:16.359Z,11.70
2022-11-18T18:27:44.192Z,11.70
2022-11-18T18:30:13.469Z,11.70
2022-11-18T18:32:42.705Z,11.70
2022-11-18T18:35:11.275Z,11.60
2022-11-18T18:37:39.294Z,11.60
2022-11-18T18:40:08.457Z,11.60
2022-11-18T18:42:36.349Z,11.60
2022-11-18T18:45:21.993Z,11.50
2022-11-18T18:47:51.599Z,11.50
2022-11-18T18:50:21.039Z,11.50
2022-11-18T18:52:51.024Z,11.50
2022-11-18T18:55:19.260Z,11.50
2022-11-18T18:57:47.156Z,11.50
2022-11-18T19:00:16.253Z,11.40
2022-11-18T19:02:44.199Z,11.40
2022-11-18T19:05:13.762Z,11.40
2022-11-18T19:07:43.271Z,11.30
2022-11-18T19:10:11.359Z,11.30
2022-11-18T19:12:44.332Z,11.30
2022-11-18T19:15:13.152Z,11.30
2022-11-18T19:17:41.945Z,11.30
2022-11-18T19:20:39.891Z,11.30
2022-11-18T19:23:10.715Z,11.40
2022-11-18T19:25:38.968Z,11.40
2022-11-18T19:28:09.607Z,11.40
2022-11-18T19:34:11.335Z,11.50
2022-11-18T19:36:40.660Z,11.50
2022-11-18T19:39:08.691Z,11.50
2022-11-18T19:41:36.566Z,11.60
2022-11-18T19:44:05.192Z,11.60
2022-11-18T19:46:33.290Z,11.50
2022-11-18T19:49:01.229Z,11.50
2022-11-18T19:51:30.337Z,11.50
2022-11-18T19:53:59.892Z,11.60
2022-11-18T19:56:27.892Z,11.60
2022-11-18T19:58:55.855Z,11.60
2022-11-18T20:01:27.339Z,11.60
2022-11-18T20:03:57.330Z,11.60
2022-11-18T20:06:26.850Z,11.50
2022-11-18T20:08:55.744Z,11.50
2022-11-18T20:11:25.858Z,11.50
2022-11-18T20:13:53.690Z,11.50
2022-11-18T20:16:23.384Z,11.50
2022-11-18T20:18:54.073Z,11.50
2022-11-18T20:21:22.616Z,11.50
2022-11-18T20:23:52.104Z,11.50
2022-11-18T20:26:22.156Z,11.50
2022-11-18T20:28:57.156Z,11.50
2022-11-18T20:31:29.957Z,11.50
2022-11-18T20:33:58.327Z,11.50
2022-11-18T20:36:27.726Z,11.50
2022-11-18T20:38:57.208Z,11.60
2022-11-18T20:41:32.681Z,11.60
2022-11-18T20:44:01.978Z,11.60
2022-11-18T20:46:29.837Z,11.60
2022-11-18T20:48:57.763Z,11.60
2022-11-18T20:51:27.040Z,11.60
2022-11-18T20:53:56.277Z,11.60
2022-11-18T20:56:25.498Z,11.60
2022-11-18T20:58:53.471Z,11.60
2022-11-18T21:01:24.205Z,11.60
2022-11-18T21:03:53.607Z,11.60
2022-11-18T21:06:22.534Z,11.60
2022-11-18T21:08:50.478Z,11.60
2022-11-18T21:11:18.308Z,11.60
2022-11-18T21:14:03.956Z,11.60
2022-11-18T21:16:33.119Z,11.60
2022-11-18T21:19:01.002Z,11.60
2022-11-18T21:21:48.711Z,11.60
2022-11-18T21:24:18.107Z,11.60
2022-11-18T21:26:47.694Z,11.50
2022-11-18T21:29:17.298Z,11.50
2022-11-18T21:31:47.273Z,11.50
2022-11-18T21:34:16.004Z,11.50
2022-11-18T21:36:47.027Z,11.50
2022-11-18T21:39:18.784Z,11.50
2022-11-18T21:41:52.068Z,11.50
2022-11-18T21:44:23.001Z,11.50
2022-11-18T21:46:52.196Z,11.50
2022-11-18T21:49:20.409Z,11.50
2022-11-18T21:51:48.536Z,11.50
2022-11-18T21:54:18.098Z,11.50
2022-11-18T21:56:46.024Z,11.50
2022-11-18T21:59:13.929Z,11.50
2022-11-18T22:01:41.799Z,11.50
2022-11-18T22:04:31.640Z,11.50
2022-11-18T22:06:59.566Z,11.60
2022-11-18T22:09:31.457Z,11.50
2022-11-18T22:12:02.629Z,11.50
2022-11-18T22:14:30.453Z,11.50
2022-11-18T22:16:58.334Z,11.50
2022-11-18T22:19:27.576Z,11.50
2022-11-18T22:21:55.434Z,11.50
2022-11-18T22:24:23.465Z,11.50
2022-11-18T22:26:51.442Z,11.50
2022-11-18T22:29:19.612Z,11.50
2022-11-18T22:31:47.715Z,11.50
2022-11-18T22:34:15.531Z,11.50
2022-11-18T22:36:44.764Z,11.50
2022-11-18T22:39:12.611Z,11.50
2022-11-18T22:41:58.129Z,11.40
2022-11-18T22:44:25.954Z,11.40
2022-11-18T22:46:54.476Z,11.40
2022-11-18T22:49:22.662Z,11.40
2022-11-18T22:51:53.617Z,11.40
2022-11-18T22:57:09.709Z,11.40
2022-11-18T22:59:37.561Z,11.40
2022-11-18T23:02:05.498Z,11.40
2022-11-18T23:04:33.344Z,11.30
2022-11-18T23:07:02.631Z,11.30
2022-11-18T23:09:30.841Z,11.30
2022-11-18T23:12:16.269Z,11.30
2022-11-18T23:14:44.231Z,11.30
2022-11-18T23:17:12.064Z,11.20
2022-11-18T23:19:43.427Z,11.20
2022-11-18T23:22:12.845Z,11.20
2022-11-18T23:24:40.715Z,11.20
2022-11-18T23:27:08.707Z,11.10
2022-11-18T23:29:36.579Z,11.20
2022-11-18T23:32:04.706Z,11.20
2022-11-18T23:34:32.601Z,11.10
2022-11-18T23:37:00.405Z,11.10
2022-11-18T23:39:29.590Z,11.10
2022-11-18T23:41:57.412Z,11.10
2022-11-18T23:44:45.041Z,11.10
2022-11-18T23:47:13.294Z,11.10
2022-11-18T23:49:41.114Z,11.10
2022-11-18T23:52:09.032Z,11.10
2022-11-18T23:54:38.175Z,11.10
2022-11-18T23:57:06.023Z,11.10
2022-11-18T23:59:34.105Z,11.10
